Time;durP1;ratioP1;P1;durP2;ratioP2;P2;SDS_P1;SDS_P2;PMS_P1;PMS_P2;Temp;Humidity;BMP_temperature;BMP_pressure;BME280_temperature;BME280_humidity;BME280_pressure;Samples;Min_cycle;Max_cycle;Signal;HPM_P1;HPM_P2
2022/04/23 00:00:33;;;;;;;15.07;10.03;;;11.00;99.90;;;;;;4243445;27;20379;-57
2022/04/23 00:02:34;;;;;;;15.67;9.97;;;11.00;99.90;;;;;;4240523;27;20035;-55
2022/04/23 00:04:36;;;;;;;19.20;11.30;;;11.00;99.90;;;;;;4242010;27;20023;-65
2022/04/23 00:06:38;;;;;;;18.77;10.30;;;11.00;99.90;;;;;;4240455;27;20035;-59
2022/04/23 00:08:39;;;;;;;18.20;10.63;;;10.90;99.90;;;;;;4241929;27;20935;-61
2022/04/23 00:10:40;;;;;;;19.23;11.07;;;10.80;99.90;;;;;;4240551;27;20540;-54
2022/04/23 00:12:43;;;;;;;18.63;11.17;;;10.80;99.90;;;;;;4241545;27;20088;-56
2022/04/23 00:14:44;;;;;;;20.40;12.30;;;10.70;99.90;;;;;;4250392;27;20106;-64
2022/04/23 00:16:46;;;;;;;18.23;11.13;;;10.70;99.90;;;;;;4258520;27;20022;-57
2022/04/23 00:18:47;;;;;;;22.33;12.30;;;10.70;99.90;;;;;;4257891;27;20758;-57
2022/04/23 00:20:48;;;;;;;23.70;11.37;;;10.70;99.90;;;;;;4258445;27;20035;-65
2022/04/23 00:22:49;;;;;;;17.97;11.87;;;10.70;99.90;;;;;;4256633;27;20091;-64
2022/04/23 00:24:50;;;;;;;21.77;13.17;;;10.70;99.90;;;;;;4256414;27;20026;-65
2022/04/23 00:26:51;;;;;;;21.67;12.13;;;10.80;99.90;;;;;;4257572;27;20079;-56
2022/04/23 00:28:53;;;;;;;26.97;11.77;;;10.80;99.90;;;;;;4256836;27;20071;-61
2022/04/23 00:30:54;;;;;;;19.80;11.87;;;10.80;99.90;;;;;;4262423;27;20053;-66
2022/04/23 00:33:03;;;;;;;17.93;12.07;;;10.80;99.90;;;;;;4273104;27;20091;-60
2022/04/23 00:35:06;;;;;;;18.50;11.33;;;10.80;99.90;;;;;;4269834;27;20023;-53
2022/04/23 00:37:07;;;;;;;17.43;9.87;;;10.80;99.90;;;;;;4240259;27;20023;-54
2022/04/23 00:39:08;;;;;;;17.47;10.30;;;10.80;99.90;;;;;;4222949;28;20127;-55
2022/04/23 00:41:43;;;;;;;16.30;9.23;;;10.80;99.90;;;;;;4239294;27;20543;-59
2022/04/23 00:43:34;;;;;;;15.07;9.80;;;10.80;99.90;;;;;;4241390;27;20044;-56
2022/04/23 00:45:35;;;;;;;15.23;10.47;;;10.80;99.90;;;;;;4239348;27;20043;-55
2022/04/23 00:47:36;;;;;;;17.80;9.97;;;10.80;99.90;;;;;;4241661;27;20051;-56
2022/04/23 00:49:37;;;;;;;17.37;11.07;;;10.70;99.90;;;;;;4239714;27;20050;-60
2022/04/23 00:51:42;;;;;;;17.23;10.10;;;10.70;99.90;;;;;;4241116;27;20483;-65
2022/04/23 00:53:44;;;;;;;14.77;10.57;;;10.70;99.90;;;;;;4239511;27;20095;-56
2022/04/23 00:55:47;;;;;;;17.43;10.10;;;10.60;99.90;;;;;;4240449;27;20051;-60
2022/04/23 00:57:48;;;;;;;18.40;10.23;;;10.60;99.90;;;;;;4255720;27;20031;-62
2022/04/23 00:59:50;;;;;;;19.30;10.57;;;10.60;99.90;;;;;;4257074;27;20087;-56
2022/04/23 01:01:53;;;;;;;18.40;10.77;;;10.60;99.90;;;;;;4256973;27;20088;-64
2022/04/23 01:03:54;;;;;;;17.00;11.33;;;10.60;99.90;;;;;;4256728;27;20047;-56
2022/04/23 01:05:55;;;;;;;21.53;12.90;;;10.50;99.90;;;;;;4261260;27;20473;-57
2022/04/23 01:08:00;;;;;;;19.33;11.90;;;10.50;99.90;;;;;;4273054;27;20102;-52
2022/04/23 01:10:02;;;;;;;21.27;12.67;;;10.50;99.90;;;;;;4273987;27;20083;-53
2022/04/23 01:12:05;;;;;;;20.30;12.50;;;10.50;99.90;;;;;;4239164;28;20561;-55
2022/04/23 01:14:06;;;;;;;22.17;11.37;;;10.50;99.90;;;;;;4248578;27;20099;-62
2022/04/23 01:16:08;;;;;;;23.03;13.90;;;10.50;99.90;;;;;;4257176;27;20030;-57
2022/04/23 01:18:09;;;;;;;24.83;15.13;;;10.50;99.90;;;;;;4257664;27;20107;-55
2022/04/23 01:20:13;;;;;;;30.30;16.23;;;10.60;99.90;;;;;;4256616;27;20031;-57
2022/04/23 01:22:16;;;;;;;27.30;15.90;;;10.50;99.90;;;;;;4258202;27;20026;-55
2022/04/23 01:24:19;;;;;;;24.90;16.60;;;10.50;99.90;;;;;;4256820;27;20038;-60
2022/04/23 01:26:28;;;;;;;23.57;15.13;;;10.40;99.90;;;;;;4271565;27;20022;-57
2022/04/23 01:28:30;;;;;;;21.90;14.67;;;10.40;99.90;;;;;;4273341;27;20034;-62
2022/04/23 01:30:32;;;;;;;26.53;14.83;;;10.30;99.90;;;;;;4275315;27;20030;-58
2022/04/23 01:32:33;;;;;;;24.13;15.37;;;10.30;99.90;;;;;;4273665;27;20102;-61
2022/04/23 01:34:34;;;;;;;21.03;14.00;;;10.30;99.90;;;;;;4273249;27;20099;-59
2022/04/23 01:36:35;;;;;;;21.77;13.83;;;10.30;99.90;;;;;;4272504;27;20038;-59
2022/04/23 01:38:37;;;;;;;27.03;14.70;;;10.30;99.90;;;;;;4273891;27;20043;-54
2022/04/23 01:40:38;;;;;;;23.33;13.47;;;10.30;99.90;;;;;;4270485;27;20067;-57
2022/04/23 01:42:39;;;;;;;25.60;13.90;;;10.30;99.90;;;;;;4260225;27;20094;-59
2022/04/23 01:44:40;;;;;;;23.67;13.73;;;10.30;99.90;;;;;;4259874;27;20039;-60
2022/04/23 01:46:41;;;;;;;20.20;13.10;;;10.30;99.90;;;;;;4258794;27;20050;-68
2022/04/23 01:48:42;;;;;;;28.13;14.47;;;10.40;99.90;;;;;;4261100;27;20031;-55
2022/04/23 01:50:44;;;;;;;25.87;14.87;;;10.40;99.90;;;;;;4259567;27;20119;-63
2022/04/23 01:52:46;;;;;;;25.07;15.00;;;10.40;99.90;;;;;;4260941;27;20079;-65
2022/04/23 01:54:47;;;;;;;22.53;14.53;;;10.40;99.90;;;;;;4260300;27;20386;-58
2022/04/23 01:56:49;;;;;;;25.07;16.23;;;10.40;99.90;;;;;;4270617;27;20087;-64
2022/04/23 01:58:50;;;;;;;26.37;15.90;;;10.40;99.90;;;;;;4274252;27;20046;-56
2022/04/23 02:00:52;;;;;;;28.10;15.87;;;10.40;99.90;;;;;;4260509;27;20091;-64
2022/04/23 02:02:57;;;;;;;22.57;14.73;;;10.40;99.90;;;;;;4259772;27;20022;-56
2022/04/23 02:04:58;;;;;;;22.90;15.60;;;10.40;99.90;;;;;;4259768;27;20083;-60
2022/04/23 02:07:00;;;;;;;24.60;15.60;;;10.40;99.90;;;;;;4274148;27;20042;-57
2022/04/23 02:09:02;;;;;;;22.53;14.20;;;10.30;99.90;;;;;;4276591;27;20424;-66
2022/04/23 02:11:03;;;;;;;20.97;14.00;;;10.30;99.90;;;;;;4276004;27;20030;-63
2022/04/23 02:13:04;;;;;;;23.43;14.83;;;10.30;99.90;;;;;;4276801;27;20071;-53
2022/04/23 02:15:10;;;;;;;21.23;13.87;;;10.30;99.90;;;;;;4276205;27;20026;-58
2022/04/23 02:17:11;;;;;;;18.97;12.70;;;10.30;99.90;;;;;;4276802;27;20490;-64
2022/04/23 02:19:13;;;;;;;21.40;14.37;;;10.30;99.90;;;;;;4276889;27;20034;-56
2022/04/23 02:21:14;;;;;;;21.37;11.63;;;10.20;99.90;;;;;;4276539;27;20022;-53
2022/04/23 02:23:15;;;;;;;20.90;12.03;;;10.20;99.90;;;;;;4277270;27;20101;-64
2022/04/23 02:25:17;;;;;;;17.37;11.40;;;10.20;99.90;;;;;;4273345;27;20091;-65
2022/04/23 02:27:18;;;;;;;20.27;12.67;;;10.10;99.90;;;;;;4276821;27;20050;-55
2022/04/23 02:29:19;;;;;;;20.07;12.47;;;10.10;99.90;;;;;;4276632;27;20050;-65
2022/04/23 02:31:20;;;;;;;24.00;13.17;;;10.10;99.90;;;;;;4264042;27;20043;-58
2022/04/23 02:33:22;;;;;;;23.97;12.67;;;10.10;99.90;;;;;;4258462;27;20035;-66
2022/04/23 02:35:23;;;;;;;21.20;13.57;;;10.10;99.90;;;;;;4244654;27;20043;-69
2022/04/23 02:37:27;;;;;;;17.27;10.87;;;10.10;99.90;;;;;;4275582;27;20071;-60
2022/04/23 02:39:28;;;;;;;16.73;10.20;;;10.10;99.90;;;;;;4277052;27;20026;-68
2022/04/23 02:41:29;;;;;;;16.70;9.10;;;10.10;99.90;;;;;;4276192;27;20102;-63
2022/04/23 02:43:30;;;;;;;14.93;8.47;;;10.10;99.90;;;;;;4258395;27;20038;-59
2022/04/23 02:45:32;;;;;;;13.97;8.97;;;10.20;99.90;;;;;;4276066;27;20031;-56
2022/04/23 02:47:43;;;;;;;12.50;7.10;;;10.20;99.90;;;;;;4275681;27;20054;-55
2022/04/23 02:49:45;;;;;;;17.43;10.00;;;10.30;99.90;;;;;;4277199;27;20030;-55
2022/04/23 02:51:46;;;;;;;14.07;8.67;;;10.30;99.90;;;;;;4275228;27;20050;-66
2022/04/23 02:53:47;;;;;;;11.53;8.07;;;10.30;99.90;;;;;;4276759;27;20079;-67
2022/04/23 02:55:48;;;;;;;14.00;8.70;;;10.30;99.90;;;;;;4273978;27;20045;-58
2022/04/23 02:57:49;;;;;;;13.57;8.90;;;10.20;99.90;;;;;;4276211;27;20042;-64
2022/04/23 02:59:50;;;;;;;16.93;8.83;;;10.30;99.90;;;;;;4256946;27;20502;-53
2022/04/23 03:01:52;;;;;;;10.17;7.63;;;10.30;99.90;;;;;;4277646;27;20077;-61
2022/04/23 03:03:54;;;;;;;16.50;9.67;;;10.30;99.90;;;;;;4275956;27;20554;-57
2022/04/23 03:05:56;;;;;;;13.77;7.93;;;10.30;99.90;;;;;;4276419;27;20095;-63
2022/04/23 03:07:59;;;;;;;8.50;5.60;;;10.30;99.90;;;;;;4275117;27;20791;-61
2022/04/23 03:10:05;;;;;;;12.53;7.70;;;10.30;99.90;;;;;;4276614;27;20042;-53
2022/04/23 03:12:09;;;;;;;9.33;5.57;;;10.30;99.90;;;;;;4275097;27;20039;-56
2022/04/23 03:14:10;;;;;;;11.07;6.77;;;10.40;99.90;;;;;;4277177;27;20082;-64
2022/04/23 03:16:11;;;;;;;12.30;7.20;;;10.40;99.90;;;;;;4275878;27;20026;-60
2022/04/23 03:18:14;;;;;;;11.20;6.37;;;10.40;99.90;;;;;;4276165;27;20360;-63
2022/04/23 03:20:15;;;;;;;11.43;7.30;;;10.40;99.90;;;;;;4274020;27;20075;-56
2022/04/23 03:22:16;;;;;;;9.57;6.63;;;10.40;99.90;;;;;;4275340;27;20046;-55
2022/04/23 03:24:17;;;;;;;10.47;5.77;;;10.40;99.90;;;;;;4276650;27;20034;-57
2022/04/23 03:26:19;;;;;;;11.37;6.30;;;10.40;99.90;;;;;;4275144;27;20050;-60
2022/04/23 03:28:20;;;;;;;9.73;5.67;;;10.40;99.90;;;;;;4275973;27;20087;-57
2022/04/23 03:30:21;;;;;;;9.50;5.87;;;10.40;99.90;;;;;;4275206;27;20435;-62
2022/04/23 03:32:23;;;;;;;9.03;5.60;;;10.30;99.90;;;;;;4276434;27;20038;-62
2022/04/23 03:34:24;;;;;;;9.90;5.20;;;10.30;99.90;;;;;;4275812;27;20078;-58
2022/04/23 03:36:25;;;;;;;9.80;6.20;;;10.40;99.90;;;;;;4276847;27;20022;-67
2022/04/23 03:38:26;;;;;;;12.90;5.87;;;10.40;99.90;;;;;;4275035;27;20097;-52
2022/04/23 03:40:27;;;;;;;9.27;6.03;;;10.40;99.90;;;;;;4275961;27;20042;-62
2022/04/23 03:42:28;;;;;;;6.17;4.70;;;10.40;99.90;;;;;;4274849;27;20493;-62
2022/04/23 03:44:31;;;;;;;10.10;4.87;;;10.30;99.90;;;;;;4273675;27;20094;-62
2022/04/23 03:46:32;;;;;;;12.30;6.23;;;10.30;99.90;;;;;;4274252;27;20034;-53
2022/04/23 03:48:33;;;;;;;7.97;5.97;;;10.40;99.90;;;;;;4275847;27;20099;-57
2022/04/23 03:50:35;;;;;;;10.13;5.47;;;10.40;99.90;;;;;;4274585;27;20443;-58
2022/04/23 03:52:36;;;;;;;7.10;5.43;;;10.40;99.90;;;;;;4275434;27;20140;-56
2022/04/23 03:54:38;;;;;;;6.70;3.70;;;10.40;99.90;;;;;;4271140;27;20022;-65
2022/04/23 03:56:40;;;;;;;9.07;4.67;;;10.40;99.90;;;;;;4258246;27;20531;-56
2022/04/23 03:58:41;;;;;;;8.50;4.93;;;10.40;99.90;;;;;;4271750;27;20046;-55
2022/04/23 04:00:42;;;;;;;7.37;4.77;;;10.40;99.90;;;;;;4269114;27;20043;-56
2022/04/23 04:02:44;;;;;;;14.97;4.90;;;10.40;99.90;;;;;;4259166;27;20026;-54
2022/04/23 04:04:45;;;;;;;8.57;4.80;;;10.40;99.90;;;;;;4257707;27;20091;-63
2022/04/23 04:06:46;;;;;;;7.17;4.73;;;10.50;99.90;;;;;;4258495;27;20493;-57
2022/04/23 04:08:50;;;;;;;8.27;5.00;;;10.40;99.90;;;;;;4257533;27;20046;-62
2022/04/23 04:10:51;;;;;;;8.70;5.27;;;10.50;99.90;;;;;;4258572;27;20099;-51
2022/04/23 04:12:52;;;;;;;9.93;5.10;;;10.50;99.90;;;;;;4257426;27;20039;-57
2022/04/23 04:14:53;;;;;;;9.17;5.10;;;10.60;99.90;;;;;;4258330;27;20038;-64
2022/04/23 04:16:55;;;;;;;6.90;4.80;;;10.60;99.90;;;;;;4258338;27;20035;-62
2022/04/23 04:18:56;;;;;;;9.13;5.40;;;10.60;99.90;;;;;;4257610;27;20091;-63
2022/04/23 04:20:58;;;;;;;9.03;5.60;;;10.60;99.90;;;;;;4257544;27;20482;-53
2022/04/23 04:23:00;;;;;;;8.33;4.90;;;10.60;99.90;;;;;;4257581;27;20770;-65
2022/04/23 04:25:02;;;;;;;9.83;5.57;;;10.60;99.90;;;;;;4260834;27;20459;-58
2022/04/23 04:27:06;;;;;;;10.40;5.77;;;10.60;99.90;;;;;;4273998;27;20103;-56
2022/04/23 04:29:08;;;;;;;11.30;5.20;;;10.60;99.90;;;;;;4275453;27;20534;-66
2022/04/23 04:33:29;;;;;;;8.30;5.33;;;10.60;99.90;;;;;;4275702;27;20034;-61
2022/04/23 04:35:30;;;;;;;7.33;5.93;;;10.70;99.90;;;;;;4273568;27;20266;-55
2022/04/23 04:37:31;;;;;;;11.90;7.07;;;10.70;99.90;;;;;;4275686;27;20073;-60
2022/04/23 04:39:33;;;;;;;10.97;6.20;;;10.80;99.90;;;;;;4274059;27;20071;-57
2022/04/23 04:41:35;;;;;;;14.20;7.23;;;10.70;99.90;;;;;;4267175;27;20115;-56
2022/04/23 04:43:36;;;;;;;10.90;6.13;;;10.80;99.90;;;;;;4257297;27;20052;-60
2022/04/23 04:45:37;;;;;;;11.03;6.90;;;10.80;99.90;;;;;;4259276;27;20539;-60
2022/04/23 04:47:39;;;;;;;10.83;6.93;;;10.80;99.90;;;;;;4255600;27;20042;-60
2022/04/23 04:49:40;;;;;;;7.37;5.67;;;10.80;99.90;;;;;;4258095;27;20451;-57
2022/04/23 04:51:42;;;;;;;14.37;6.80;;;10.80;99.90;;;;;;4256801;27;20026;-56
2022/04/23 04:53:43;;;;;;;11.30;7.50;;;10.80;99.90;;;;;;4257905;27;20035;-64
2022/04/23 04:55:44;;;;;;;13.70;8.00;;;10.80;99.90;;;;;;4257261;27;20027;-54
2022/04/23 04:57:45;;;;;;;9.77;7.23;;;10.80;99.90;;;;;;4262117;27;20058;-57
2022/04/23 04:59:46;;;;;;;14.20;8.60;;;10.80;99.90;;;;;;4274658;27;20026;-57
2022/04/23 05:01:48;;;;;;;16.00;10.20;;;10.80;99.90;;;;;;4273388;27;20049;-56
2022/04/23 05:03:49;;;;;;;13.17;9.03;;;10.90;99.90;;;;;;4274038;27;20034;-56
2022/04/23 05:05:50;;;;;;;15.00;9.47;;;10.90;99.90;;;;;;4268552;27;20561;-68
2022/04/23 05:07:51;;;;;;;16.57;10.07;;;10.90;99.90;;;;;;4271364;27;20107;-58
2022/04/23 05:09:52;;;;;;;16.47;9.53;;;10.90;99.90;;;;;;4272826;27;20050;-56
2022/04/23 05:11:54;;;;;;;15.37;9.23;;;11.00;99.90;;;;;;4274418;27;20101;-57
2022/04/23 05:13:55;;;;;;;16.87;9.87;;;11.00;99.90;;;;;;4273471;27;20029;-58
2022/04/23 05:15:56;;;;;;;18.87;10.80;;;11.00;99.90;;;;;;4276150;27;20086;-59
2022/04/23 05:17:58;;;;;;;18.00;9.30;;;11.10;99.90;;;;;;4271201;27;20054;-67
2022/04/23 05:19:59;;;;;;;20.43;10.27;;;11.10;99.90;;;;;;4261038;27;20034;-57
2022/04/23 05:22:00;;;;;;;12.40;8.27;;;11.20;99.90;;;;;;4258977;27;20470;-59
2022/04/23 05:24:01;;;;;;;13.93;9.10;;;11.20;99.90;;;;;;4261405;27;20023;-60
2022/04/23 05:26:03;;;;;;;14.43;8.10;;;11.20;99.90;;;;;;4259991;27;20031;-57
2022/04/23 05:28:04;;;;;;;15.67;8.93;;;11.20;99.90;;;;;;4259969;27;20099;-60
2022/04/23 05:30:06;;;;;;;12.57;7.07;;;11.30;99.90;;;;;;4260249;27;20508;-58
2022/04/23 05:32:08;;;;;;;22.03;11.83;;;11.30;99.90;;;;;;4258825;27;20034;-64
2022/04/23 05:34:09;;;;;;;16.67;9.37;;;11.30;99.90;;;;;;4260187;27;20087;-60
2022/04/23 05:36:10;;;;;;;15.50;9.53;;;11.30;99.90;;;;;;4260035;27;20435;-56
2022/04/23 05:38:11;;;;;;;14.17;8.57;;;11.30;99.90;;;;;;4260867;27;20042;-60
2022/04/23 05:40:13;;;;;;;14.07;8.83;;;11.30;99.90;;;;;;4259351;27;20031;-57
2022/04/23 05:42:14;;;;;;;17.13;9.67;;;11.20;99.90;;;;;;4261109;27;20035;-68
2022/04/23 05:44:15;;;;;;;14.17;9.10;;;11.20;99.90;;;;;;4259813;27;20432;-65
2022/04/23 05:46:17;;;;;;;11.27;7.87;;;11.20;99.90;;;;;;4260574;27;20067;-59
2022/04/23 05:48:18;;;;;;;16.27;8.53;;;11.20;99.90;;;;;;4259176;27;20867;-61
2022/04/23 05:50:19;;;;;;;10.80;8.57;;;11.20;99.90;;;;;;4260672;27;20030;-52
2022/04/23 05:52:21;;;;;;;14.63;7.93;;;11.30;99.90;;;;;;4263607;27;20042;-66
2022/04/23 05:54:22;;;;;;;11.57;7.90;;;11.40;99.90;;;;;;4259703;27;20432;-66
2022/04/23 05:56:23;;;;;;;11.63;8.10;;;11.50;99.90;;;;;;4276306;27;20034;-59
2022/04/23 05:58:25;;;;;;;12.90;9.00;;;11.60;99.90;;;;;;4276451;27;20026;-55
2022/04/23 06:00:26;;;;;;;14.90;9.93;;;11.70;99.90;;;;;;4275436;27;20433;-57
2022/04/23 06:02:28;;;;;;;13.03;8.93;;;11.70;99.90;;;;;;4276257;27;20034;-63
2022/04/23 06:04:29;;;;;;;13.47;8.93;;;11.70;99.90;;;;;;4276595;27;20034;-58
2022/04/23 06:06:30;;;;;;;16.10;10.03;;;11.80;99.90;;;;;;4274024;27;20046;-64
2022/04/23 06:08:31;;;;;;;11.70;8.60;;;11.90;99.90;;;;;;4277529;27;20090;-66
2022/04/23 06:10:32;;;;;;;12.80;9.00;;;11.90;99.90;;;;;;4275186;27;20046;-60
2022/04/23 06:12:35;;;;;;;14.20;8.97;;;11.90;99.90;;;;;;4277707;27;20083;-51
2022/04/23 06:14:36;;;;;;;13.53;8.57;;;12.00;99.90;;;;;;4275960;27;20083;-61
2022/04/23 06:16:37;;;;;;;11.90;7.63;;;12.10;99.90;;;;;;4277660;27;20022;-58
2022/04/23 06:18:38;;;;;;;9.50;6.33;;;12.20;99.90;;;;;;4275905;27;20038;-59
2022/04/23 06:20:39;;;;;;;8.13;6.43;;;12.30;99.90;;;;;;4276081;27;20553;-59
2022/04/23 06:22:40;;;;;;;8.93;5.57;;;12.30;99.90;;;;;;4276431;27;20034;-57
2022/04/23 06:24:42;;;;;;;5.43;3.93;;;12.30;99.90;;;;;;4277312;27;20042;-56
2022/04/23 06:26:43;;;;;;;9.47;4.40;;;12.40;99.90;;;;;;4275614;27;20071;-57
2022/04/23 06:28:44;;;;;;;4.63;3.33;;;12.40;99.90;;;;;;4276334;27;20481;-63
2022/04/23 06:30:46;;;;;;;7.43;4.50;;;12.40;99.90;;;;;;4276866;27;20032;-56
2022/04/23 06:32:47;;;;;;;9.70;5.20;;;12.40;99.90;;;;;;4276565;27;20046;-60
2022/04/23 06:34:48;;;;;;;8.40;5.47;;;12.40;99.90;;;;;;4275813;27;20098;-51
2022/04/23 06:36:49;;;;;;;8.37;4.73;;;12.40;99.90;;;;;;4275503;27;20110;-65
2022/04/23 06:38:50;;;;;;;8.33;5.83;;;12.40;99.90;;;;;;4261016;27;20038;-54
2022/04/23 06:40:51;;;;;;;8.70;6.30;;;12.40;99.90;;;;;;4258069;27;20046;-55
2022/04/23 06:42:52;;;;;;;7.70;5.43;;;12.50;99.90;;;;;;4270295;27;20633;-56
2022/04/23 06:44:54;;;;;;;7.90;4.83;;;12.50;99.90;;;;;;4254128;27;20034;-56
2022/04/23 06:46:55;;;;;;;9.13;5.00;;;12.60;99.90;;;;;;4254653;27;20084;-60
2022/04/23 06:49:00;;;;;;;6.00;4.30;;;12.60;99.90;;;;;;4266781;27;20050;-61
2022/04/23 06:51:01;;;;;;;6.63;4.03;;;12.60;99.90;;;;;;4257078;27;20082;-61
2022/04/23 06:53:03;;;;;;;7.47;4.60;;;12.60;99.90;;;;;;4255615;27;20090;-64
2022/04/23 06:55:05;;;;;;;8.77;5.37;;;12.70;99.90;;;;;;4257568;27;20034;-57
2022/04/23 06:57:06;;;;;;;7.77;5.00;;;12.80;99.90;;;;;;4258067;27;20047;-58
2022/04/23 06:59:07;;;;;;;8.90;5.17;;;12.80;99.90;;;;;;4259050;27;20038;-65
2022/04/23 07:01:08;;;;;;;9.23;5.40;;;12.80;99.90;;;;;;4258121;27;20064;-58
2022/04/23 07:03:09;;;;;;;6.60;4.33;;;12.90;99.90;;;;;;4258849;27;20087;-58
2022/04/23 07:05:11;;;;;;;7.50;4.83;;;13.00;99.90;;;;;;4258274;27;20031;-55
2022/04/23 07:07:12;;;;;;;6.00;4.53;;;13.10;99.90;;;;;;4258267;27;20169;-58
2022/04/23 07:09:13;;;;;;;7.50;3.90;;;13.20;99.90;;;;;;4258530;27;20050;-63
2022/04/23 07:11:14;;;;;;;6.27;4.40;;;13.20;99.90;;;;;;4269417;27;20038;-53
2022/04/23 07:13:16;;;;;;;8.50;4.40;;;13.20;99.90;;;;;;4275397;27;20038;-57
2022/04/23 07:15:17;;;;;;;5.47;4.10;;;13.20;99.90;;;;;;4275433;27;20079;-61
2022/04/23 07:17:25;;;;;;;8.23;4.80;;;13.20;99.90;;;;;;4276711;27;20022;-55
2022/04/23 07:19:26;;;;;;;6.23;4.37;;;13.20;99.90;;;;;;4275119;27;20400;-59
2022/04/23 07:21:29;;;;;;;5.90;4.20;;;13.20;99.90;;;;;;4276280;27;20022;-57
2022/04/23 07:25:51;;;;;;;5.87;4.13;;;13.30;99.90;;;;;;4259773;27;20030;-60
2022/04/23 07:27:52;;;;;;;8.73;4.20;;;13.20;99.90;;;;;;4256611;27;20087;-55
2022/04/23 07:29:53;;;;;;;8.23;4.40;;;13.20;99.90;;;;;;4258513;27;20042;-60
2022/04/23 07:31:56;;;;;;;9.97;6.53;;;13.20;99.90;;;;;;4263973;27;20157;-53
2022/04/23 07:38:36;;;;;;;11.50;6.47;;;13.30;99.90;;;;;;4275894;27;20023;-59
2022/04/23 07:40:40;;;;;;;11.33;5.67;;;13.20;99.90;;;;;;4274380;27;20494;-60
2022/04/23 07:42:42;;;;;;;6.20;5.30;;;13.20;99.90;;;;;;4263710;27;20030;-58
2022/04/23 07:44:43;;;;;;;8.27;6.17;;;13.20;99.90;;;;;;4257857;27;20355;-59
2022/04/23 07:46:44;;;;;;;10.00;6.67;;;13.10;99.90;;;;;;4258198;27;20047;-60
2022/04/23 07:48:46;;;;;;;7.23;5.40;;;13.20;99.90;;;;;;4257867;27;20628;-58
2022/04/23 07:50:47;;;;;;;7.67;6.33;;;13.30;99.90;;;;;;4257792;27;20542;-58
2022/04/23 07:52:48;;;;;;;9.20;5.80;;;13.30;99.90;;;;;;4258272;27;20027;-65
2022/04/23 07:54:49;;;;;;;6.00;4.73;;;13.40;99.90;;;;;;4257416;27;20034;-58
2022/04/23 07:56:50;;;;;;;6.07;5.03;;;13.40;99.90;;;;;;4258124;27;20047;-65
2022/04/23 07:58:52;;;;;;;5.97;5.20;;;13.40;99.90;;;;;;4257906;27;20099;-60
2022/04/23 08:00:54;;;;;;;8.70;5.47;;;13.30;99.90;;;;;;4271005;27;20038;-55
2022/04/23 08:02:56;;;;;;;7.83;5.37;;;13.30;99.90;;;;;;4274932;27;20075;-56
2022/04/23 08:04:57;;;;;;;10.13;5.47;;;13.30;99.90;;;;;;4275353;27;20034;-60
2022/04/23 08:06:58;;;;;;;10.20;5.70;;;13.30;99.90;;;;;;4274797;27;20030;-68
2022/04/23 08:09:00;;;;;;;8.30;5.33;;;13.40;99.90;;;;;;4275485;27;20450;-52
2022/04/23 08:11:01;;;;;;;10.57;5.53;;;13.40;99.90;;;;;;4272640;27;20541;-55
2022/04/23 08:13:02;;;;;;;9.67;6.30;;;13.40;99.90;;;;;;4274896;27;20091;-61
2022/04/23 08:15:05;;;;;;;8.70;5.80;;;13.30;99.90;;;;;;4271905;27;20091;-62
2022/04/23 08:17:06;;;;;;;7.73;5.60;;;13.20;99.90;;;;;;4274904;27;20078;-65
2022/04/23 08:19:08;;;;;;;10.67;7.33;;;13.20;99.90;;;;;;4273229;27;21003;-55
2022/04/23 08:21:10;;;;;;;10.10;6.57;;;13.20;99.90;;;;;;4274361;27;20775;-55
2022/04/23 08:23:11;;;;;;;12.17;8.43;;;13.30;99.90;;;;;;4254971;27;20031;-61
2022/04/23 08:25:12;;;;;;;9.93;6.60;;;13.40;99.90;;;;;;4274034;27;20042;-56
2022/04/23 08:27:13;;;;;;;10.53;6.50;;;13.40;99.90;;;;;;4275208;27;20049;-60
2022/04/23 08:31:34;;;;;;;7.63;5.60;;;13.50;99.90;;;;;;4275243;27;20035;-59
2022/04/23 08:35:55;;;;;;;10.95;6.22;;;13.60;99.90;;;;;;4274673;27;20126;-52
2022/04/23 08:37:56;;;;;;;10.37;6.17;;;13.70;99.90;;;;;;4271665;27;20083;-54
2022/04/23 08:39:57;;;;;;;8.53;5.97;;;13.80;99.90;;;;;;4257699;27;20091;-61
2022/04/23 08:42:01;;;;;;;8.73;5.23;;;13.90;99.90;;;;;;4257021;27;20078;-58
2022/04/23 08:44:05;;;;;;;7.07;5.27;;;13.90;99.90;;;;;;4258381;27;20031;-60
2022/04/23 08:46:06;;;;;;;6.73;5.43;;;14.00;99.90;;;;;;4257229;27;20026;-62
2022/04/23 08:48:14;;;;;;;6.47;4.57;;;14.00;99.90;;;;;;4262771;27;20500;-63
2022/04/23 08:50:17;;;;;;;8.17;4.77;;;14.00;99.90;;;;;;4271898;27;20087;-55
2022/04/23 08:52:28;;;;;;;6.40;3.93;;;14.20;99.90;;;;;;4274337;27;20729;-61
2022/04/23 08:54:29;;;;;;;5.27;4.00;;;14.40;99.90;;;;;;4274203;27;20041;-56
2022/04/23 08:56:30;;;;;;;8.80;4.53;;;14.60;99.90;;;;;;4271686;27;20039;-57
2022/04/23 08:58:31;;;;;;;7.30;5.00;;;14.60;99.90;;;;;;4264932;27;20034;-65
2022/04/23 09:00:32;;;;;;;7.83;4.67;;;14.70;99.90;;;;;;4258359;27;20087;-56
2022/04/23 09:02:35;;;;;;;6.60;4.43;;;14.80;99.90;;;;;;4266766;27;20046;-60
2022/04/23 09:04:37;;;;;;;6.27;2.97;;;14.90;99.90;;;;;;4274582;27;20046;-53
2022/04/23 09:06:44;;;;;;;5.10;3.40;;;14.90;99.90;;;;;;4272782;27;20030;-57
2022/04/23 09:09:05;;;;;;;4.33;2.87;;;14.90;99.90;;;;;;4256485;27;20042;-51
2022/04/23 09:11:06;;;;;;;5.07;3.67;;;15.20;99.90;;;;;;4256601;27;20482;-61
2022/04/23 09:13:07;;;;;;;3.13;2.73;;;15.30;99.90;;;;;;4257503;27;20046;-62
2022/04/23 09:24:56;;;;;;;7.20;2.38;;;16.30;99.90;;;;;;4220789;27;20104;-58
2022/04/23 09:27:07;;;;;;;7.80;3.15;;;16.10;99.90;;;;;;4257649;27;20038;-51
2022/04/23 09:29:20;;;;;;;6.53;2.63;;;15.90;99.90;;;;;;4255581;27;20054;-56
2022/04/23 09:31:24;;;;;;;4.35;2.97;;;15.90;99.90;;;;;;4257486;27;20091;-57
2022/04/23 09:33:42;;;;;;;6.40;2.80;;;15.90;99.90;;;;;;4257423;27;20026;-56
2022/04/23 09:35:58;;;;;;;6.97;2.83;;;16.10;99.90;;;;;;4257094;27;20027;-55
2022/04/23 09:38:18;;;;;;;6.60;3.05;;;16.20;99.90;;;;;;4260281;27;20534;-55
2022/04/23 09:40:21;;;;;;;5.38;2.55;;;16.20;99.90;;;;;;4247103;27;20076;-56
2022/04/23 09:42:22;;;;;;;4.85;2.70;;;16.40;99.90;;;;;;4250694;27;20035;-54
2022/04/23 09:44:28;;;;;;;6.25;2.78;;;16.60;99.90;;;;;;4259374;27;20060;-59
2022/04/23 09:46:57;;;;;;;4.13;2.22;;;16.60;99.90;;;;;;4256058;27;20154;-56
2022/04/23 09:49:04;;;;;;;4.20;2.53;;;16.40;99.90;;;;;;4238413;28;20115;-58
2022/04/23 09:51:26;;;;;;;3.88;3.10;;;16.50;99.90;;;;;;4255454;27;20530;-54
2022/04/23 09:53:28;;;;;;;5.22;2.45;;;16.30;99.90;;;;;;4257096;27;20103;-57
2022/04/23 09:55:30;;;;;;;5.22;2.35;;;16.20;99.90;;;;;;4255710;27;20043;-64
2022/04/23 09:57:32;;;;;;;3.63;2.00;;;16.20;99.90;;;;;;4257577;27;20436;-61
2022/04/23 09:59:33;;;;;;;6.32;2.55;;;16.20;99.90;;;;;;4256038;27;20083;-57
2022/04/23 10:01:35;;;;;;;8.43;2.33;;;16.20;99.90;;;;;;4258530;27;20075;-58
2022/04/23 10:03:36;;;;;;;4.72;2.00;;;16.20;99.90;;;;;;4240558;27;20587;-59
2022/04/23 10:05:39;;;;;;;3.47;2.53;;;16.20;99.90;;;;;;4260538;27;20091;-51
2022/04/23 10:07:43;;;;;;;6.88;2.15;;;16.30;99.90;;;;;;4258521;27;20093;-55
2022/04/23 10:09:47;;;;;;;5.65;1.77;;;16.20;99.90;;;;;;4259963;27;20042;-65
2022/04/23 10:11:50;;;;;;;4.57;1.85;;;16.40;99.90;;;;;;4258627;27;20034;-61
2022/04/23 10:14:11;;;;;;;2.80;1.65;;;16.50;99.90;;;;;;4259848;27;20091;-59
2022/04/23 10:16:13;;;;;;;6.90;2.28;;;16.30;99.90;;;;;;4258926;27;20413;-57
2022/04/23 10:18:15;;;;;;;3.95;1.98;;;16.30;99.90;;;;;;4259746;27;20088;-63
2022/04/23 10:20:17;;;;;;;4.38;1.63;;;16.30;99.90;;;;;;4258834;27;20054;-59
2022/04/23 10:22:32;;;;;;;3.90;1.65;;;16.50;99.90;;;;;;4259605;27;20114;-56
2022/04/23 10:24:48;;;;;;;2.70;1.80;;;16.60;99.90;;;;;;4258228;27;20051;-60
2022/04/23 10:26:51;;;;;;;4.53;1.60;;;16.50;99.90;;;;;;4259110;27;20084;-56
2022/04/23 10:28:53;;;;;;;5.07;1.70;;;16.40;99.90;;;;;;4258071;27;20103;-61
2022/04/23 10:31:15;;;;;;;3.47;2.15;;;16.30;99.90;;;;;;4259332;27;20856;-59
2022/04/23 10:33:27;;;;;;;3.33;2.55;;;16.30;99.90;;;;;;4258118;27;20384;-55
2022/04/23 10:35:31;;;;;;;6.85;2.17;;;16.20;99.90;;;;;;4259231;27;20095;-57
2022/04/23 10:37:40;;;;;;;3.03;2.13;;;16.20;99.90;;;;;;4258722;27;20031;-62
2022/04/23 10:39:42;;;;;;;4.57;1.98;;;16.00;99.90;;;;;;4258802;27;20087;-52
2022/04/23 10:41:43;;;;;;;6.28;1.58;;;16.00;99.90;;;;;;4258590;27;20114;-58
2022/04/23 10:43:57;;;;;;;3.88;2.00;;;16.10;99.90;;;;;;4259535;27;20079;-60
2022/04/23 10:46:00;;;;;;;4.43;1.45;;;16.30;99.90;;;;;;4258381;27;20083;-60
2022/04/23 10:48:22;;;;;;;3.10;1.15;;;16.30;99.90;;;;;;4259048;27;20099;-54
2022/04/23 10:50:26;;;;;;;3.05;1.95;;;16.20;99.90;;;;;;4258418;27;20099;-58
2022/04/23 10:52:34;;;;;;;4.25;1.45;;;16.20;99.90;;;;;;4258780;27;20027;-61
2022/04/23 10:54:45;;;;;;;5.68;2.03;;;16.20;99.90;;;;;;4259064;27;20072;-56